Time;durP1;ratioP1;P1;durP2;ratioP2;P2;SDS_P1;SDS_P2;PMS_P1;PMS_P2;Temp;Humidity;BMP_temperature;BMP_pressure;BME280_temperature;BME280_humidity;BME280_pressure;Samples;Min_cycle;Max_cycle;Signal;HPM_P1;HPM_P2
2021/05/06 03:04:23;;;;;;;10.80;6.12;;;;;;;9.41;100.00;100179.37;1744775;80;21161;-66
2021/05/06 03:09:38;;;;;;;12.05;7.87;;;;;;;9.96;100.00;100176.85;1756538;80;21211;-66
2021/05/06 03:21:21;;;;;;;15.47;8.33;;;;;;;11.99;100.00;100166.02;1749045;80;22181;-67
2021/05/06 03:25:14;;;;;;;15.08;8.70;;;;;;;13.26;89.74;100161.37;1753949;81;22151;-65
2021/05/06 03:27:53;;;;;;;16.67;8.93;;;;;;;13.92;79.09;100162.23;1755044;80;21493;-68
2021/05/06 03:35:58;;;;;;;13.43;6.73;;;;;;;14.97;57.77;100164.80;1755311;80;20284;-64
2021/05/06 03:43:58;;;;;;;15.03;7.43;;;;;;;15.26;53.58;100159.91;1755644;80;21183;-64
2021/05/06 03:49:38;;;;;;;16.67;7.17;;;;;;;15.80;52.23;100161.83;1750830;80;21163;-66
2021/05/06 04:17:10;;;;;;;15.40;6.47;;;;;;;18.08;43.58;100145.69;1719283;82;20178;-66
2021/05/06 04:36:11;;;;;;;10.80;4.80;;;;;;;22.45;33.70;100128.98;1812563;77;22233;-66
2021/05/06 04:38:32;;;;;;;15.23;6.73;;;;;;;22.74;32.71;100127.93;1799509;77;21726;-66
2021/05/06 04:54:46;;;;;;;8.30;3.77;;;;;;;23.15;32.81;100119.94;1801002;78;21022;-69
2021/05/06 05:05:01;;;;;;;8.58;4.40;;;;;;;26.92;27.02;100100.19;1739375;80;21339;-67
2021/05/06 05:07:38;;;;;;;17.65;5.97;;;;;;;27.21;26.81;100107.73;1753224;80;21855;-66
2021/05/06 05:10:18;;;;;;;14.43;5.15;;;;;;;27.56;26.35;100102.98;1782948;79;21109;-67
2021/05/06 05:17:38;;;;;;;11.93;5.20;;;;;;;28.65;25.68;100102.16;1757692;80;21196;-67
2021/05/06 05:23:48;;;;;;;6.87;3.87;;;;;;;29.63;23.58;100080.98;1785303;78;21024;-69
2021/05/06 05:26:15;;;;;;;8.30;4.20;;;;;;;29.15;23.96;100069.71;1790273;79;21253;-68
2021/05/06 05:28:45;;;;;;;6.55;4.12;;;;;;;28.88;24.13;100072.05;1786311;78;21014;-67
2021/05/06 05:31:13;;;;;;;9.13;4.03;;;;;;;28.83;24.55;100065.72;1778087;79;21020;-67
2021/05/06 05:34:02;;;;;;;13.60;4.08;;;;;;;28.83;24.35;100075.10;1779258;78;21103;-67
2021/05/06 05:36:23;;;;;;;8.93;3.95;;;;;;;28.87;24.25;100060.52;1789316;79;21048;-66
2021/05/06 05:39:10;;;;;;;9.50;4.05;;;;;;;29.07;23.88;100061.88;1801960;79;21352;-66
2021/05/06 05:42:02;;;;;;;12.35;4.65;;;;;;;28.80;23.69;100056.16;1771549;79;21091;-65
2021/05/06 05:55:16;;;;;;;6.78;2.05;;;;;;;25.49;26.54;100061.48;1789140;79;20998;-67
2021/05/06 05:57:52;;;;;;;14.28;3.00;;;;;;;25.24;26.81;100055.41;1796289;79;22147;-67
2021/05/06 06:00:20;;;;;;;4.40;2.00;;;;;;;24.68;26.88;100049.84;1812067;78;21030;-65
2021/05/06 06:02:49;;;;;;;10.10;2.58;;;;;;;24.09;27.89;100054.84;1811454;79;21896;-66
2021/05/06 06:05:17;;;;;;;11.28;2.30;;;;;;;24.14;28.67;100052.16;1782309;79;20939;-67
2021/05/06 06:07:46;;;;;;;4.80;2.10;;;;;;;24.53;28.42;100052.12;1806152;79;21093;-67
2021/05/06 06:10:15;;;;;;;5.28;1.82;;;;;;;24.93;28.10;100048.27;1795872;78;21192;-67
2021/05/06 06:12:44;;;;;;;5.50;2.10;;;;;;;25.35;27.07;100046.73;1801207;79;21037;-67
2021/05/06 06:18:00;;;;;;;2.95;1.92;;;;;;;25.14;26.84;100042.17;1791852;79;21173;-66
2021/05/06 06:20:29;;;;;;;4.67;1.82;;;;;;;25.22;27.07;100034.87;1736178;81;21082;-68
2021/05/06 06:22:57;;;;;;;4.60;2.00;;;;;;;25.52;26.48;100035.56;1745330;81;22127;-68
2021/05/06 06:25:25;;;;;;;5.25;1.70;;;;;;;25.64;25.88;100027.13;1744290;81;21097;-66
2021/05/06 06:27:54;;;;;;;6.60;2.12;;;;;;;25.59;25.48;100029.88;1733750;81;21082;-67
2021/05/06 06:30:23;;;;;;;4.60;2.30;;;;;;;25.38;25.96;100035.50;1737108;81;21125;-68
2021/05/06 06:32:53;;;;;;;4.25;2.42;;;;;;;25.42;25.97;100038.36;1747405;81;21176;-69
2021/05/06 06:35:21;;;;;;;8.87;2.50;;;;;;;25.40;26.31;100041.33;1727040;81;21607;-67
2021/05/06 06:37:49;;;;;;;8.23;3.00;;;;;;;25.51;25.98;100045.99;1733669;81;21334;-69
2021/05/06 06:40:18;;;;;;;5.37;2.55;;;;;;;25.61;25.89;100049.05;1727412;81;21481;-66
2021/05/06 06:42:47;;;;;;;3.92;1.87;;;;;;;25.59;26.40;100048.02;1740683;81;22049;-68
2021/05/06 06:45:16;;;;;;;4.28;1.98;;;;;;;25.71;26.09;100042.24;1726971;81;21141;-67
2021/05/06 06:47:44;;;;;;;7.72;2.83;;;;;;;25.80;26.58;100043.23;1747607;80;21199;-69
2021/05/06 06:50:13;;;;;;;6.12;2.72;;;;;;;26.08;25.44;100048.13;1765836;80;21002;-67
2021/05/06 06:52:42;;;;;;;5.92;2.15;;;;;;;26.15;24.91;100042.42;1754429;80;21211;-67
2021/05/06 06:55:11;;;;;;;4.70;2.12;;;;;;;26.18;25.12;100045.86;1765190;80;21180;-66
2021/05/06 06:57:39;;;;;;;6.95;2.85;;;;;;;26.25;24.89;100036.89;1754572;81;21588;-66
2021/05/06 07:00:09;;;;;;;8.83;3.25;;;;;;;26.34;24.22;100031.70;1766234;80;21340;-66
2021/05/06 07:02:37;;;;;;;5.97;2.52;;;;;;;26.20;24.58;100042.33;1752686;80;21539;-65
2021/05/06 07:05:09;;;;;;;3.95;2.12;;;;;;;25.91;24.75;100049.19;1732542;80;21071;-66
2021/05/06 07:07:38;;;;;;;4.17;2.22;;;;;;;25.63;24.50;100050.91;1708395;82;21146;-65
2021/05/06 07:10:08;;;;;;;11.70;2.95;;;;;;;25.19;24.98;100051.98;1742479;81;20967;-71
2021/05/06 07:12:36;;;;;;;15.38;3.77;;;;;;;24.79;25.64;100049.22;1745834;81;21524;-65
2021/05/06 07:15:06;;;;;;;4.30;1.90;;;;;;;24.63;26.12;100056.03;1756543;81;21165;-64
2021/05/06 07:17:35;;;;;;;4.50;2.00;;;;;;;24.62;25.75;100062.41;1706670;82;21236;-66
2021/05/06 07:20:05;;;;;;;7.67;1.77;;;;;;;24.45;26.13;100048.73;1745695;80;21299;-71
2021/05/06 07:22:33;;;;;;;5.60;1.62;;;;;;;24.32;26.17;100060.81;1755325;81;21105;-68
2021/05/06 07:25:05;;;;;;;4.70;1.90;;;;;;;24.00;26.07;100058.09;1755887;80;21740;-64
2021/05/06 07:27:34;;;;;;;5.55;1.98;;;;;;;23.64;26.81;100062.00;1756744;80;21149;-67
2021/05/06 07:30:08;;;;;;;5.80;2.70;;;;;;;23.69;27.32;100054.84;1749341;81;26788;-68
2021/05/06 07:32:38;;;;;;;20.43;3.60;;;;;;;23.79;27.47;100052.66;1729098;82;21129;-68
2021/05/06 07:35:09;;;;;;;6.83;2.17;;;;;;;23.89;27.54;100056.57;1739523;82;21149;-67
2021/05/06 07:37:43;;;;;;;;;;;;;;;24.16;27.56;100060.65;1732850;82;21275;-66
2021/05/06 07:40:21;;;;;;;4.97;1.90;;;;;;;24.51;26.66;100068.40;1729044;81;20313;-68
2021/05/06 07:42:51;;;;;;;3.80;2.08;;;;;;;24.64;26.36;100071.48;1737747;81;21058;-67
2021/05/06 07:45:22;;;;;;;4.87;1.98;;;;;;;24.42;26.45;100053.28;1737381;81;25237;-67
2021/05/06 07:47:51;;;;;;;13.45;3.33;;;;;;;24.01;26.94;100054.35;1776095;79;21121;-68
2021/05/06 07:50:22;;;;;;;5.90;2.47;;;;;;;23.79;27.47;100053.99;1771239;79;21621;-67
2021/05/06 07:52:54;;;;;;;;;;;;;;;24.02;27.16;100051.18;1771920;79;21169;-69
2021/05/06 07:55:24;;;;;;;7.00;2.67;;;;;;;24.41;27.00;100045.83;1781514;79;20220;-66
2021/05/06 07:57:53;;;;;;;5.17;2.30;;;;;;;24.67;26.47;100038.94;1729246;82;21134;-68
2021/05/06 08:00:25;;;;;;;4.60;2.20;;;;;;;24.71;26.97;100045.30;1719807;82;22260;-66
2021/05/06 08:02:55;;;;;;;7.12;2.55;;;;;;;24.87;26.93;100034.72;1785614;79;21145;-66
2021/05/06 08:05:25;;;;;;;4.63;2.23;;;;;;;24.85;26.73;100036.89;1777521;78;21112;-66
2021/05/06 08:07:54;;;;;;;3.95;1.90;;;;;;;24.75;27.09;100031.66;1715498;80;21106;-68
2021/05/06 08:10:23;;;;;;;5.67;2.23;;;;;;;24.85;27.13;100030.23;1752053;80;21204;-67
2021/05/06 08:12:52;;;;;;;5.57;2.27;;;;;;;25.05;27.37;100023.86;1756267;81;21117;-69
2021/05/06 08:15:20;;;;;;;6.17;2.10;;;;;;;25.34;26.87;100025.12;1743761;80;21349;-69
2021/05/06 08:20:31;;;;;;;5.47;2.17;;;;;;;24.71;27.41;100006.65;1808265;77;22958;-67
2021/05/06 08:23:00;;;;;;;3.00;1.60;;;;;;;24.48;27.90;100012.20;1769551;78;20943;-68
2021/05/06 08:25:30;;;;;;;3.97;1.83;;;;;;;24.60;27.46;100003.83;1778191;78;21268;-68
2021/05/06 08:27:58;;;;;;;6.97;1.70;;;;;;;24.68;27.36;100004.00;1785572;78;22532;-69
2021/05/06 08:30:26;;;;;;;5.77;2.20;;;;;;;24.71;26.77;100007.44;1765219;78;20986;-66
2021/05/06 08:32:55;;;;;;;5.37;2.73;;;;;;;24.76;26.84;100008.70;1768254;79;21171;-69
2021/05/06 08:35:23;;;;;;;5.37;1.90;;;;;;;24.92;26.85;100003.99;1774332;78;21069;-68
2021/05/06 08:37:51;;;;;;;3.33;1.40;;;;;;;25.07;26.79;100000.89;1783485;78;21714;-66
2021/05/06 08:40:20;;;;;;;3.87;1.60;;;;;;;25.23;26.56;99997.01;1796479;78;21018;-68
2021/05/06 08:42:52;;;;;;;3.00;1.50;;;;;;;25.40;26.40;99997.84;1773601;79;20990;-67
2021/05/06 08:45:20;;;;;;;7.03;1.87;;;;;;;25.45;26.27;99983.88;1762058;80;21486;-66
2021/05/06 08:47:49;;;;;;;5.23;1.90;;;;;;;25.58;26.73;99980.25;1772799;78;21067;-65
2021/05/06 08:50:19;;;;;;;5.53;1.70;;;;;;;25.62;25.69;99974.59;1775348;78;22274;-67
2021/05/06 08:52:49;;;;;;;2.97;1.43;;;;;;;25.31;26.12;99983.02;1769776;79;21159;-66
2021/05/06 08:55:17;;;;;;;5.90;1.77;;;;;;;25.14;26.12;99978.70;1775058;78;20994;-65
2021/05/06 08:57:45;;;;;;;3.97;1.63;;;;;;;24.98;26.27;99972.20;1768357;79;20935;-65
2021/05/06 09:00:16;;;;;;;4.07;1.40;;;;;;;25.18;26.83;99966.38;1769171;78;21611;-67
2021/05/06 09:02:47;;;;;;;5.40;1.60;;;;;;;25.62;25.45;99962.57;1719787;81;21158;-64
2021/05/06 09:05:15;;;;;;;5.72;1.82;;;;;;;25.75;25.92;99960.48;1745680;81;28383;-67
2021/05/06 09:07:45;;;;;;;3.80;1.23;;;;;;;25.85;25.34;99947.02;1721354;82;21121;-66
2021/05/06 09:10:35;;;;;;;4.73;1.70;;;;;;;26.07;24.90;99946.38;1723358;82;21228;-66
2021/05/06 09:13:06;;;;;;;6.15;1.87;;;;;;;26.20;24.86;99954.16;1722404;82;21595;-68
2021/05/06 09:15:46;;;;;;;7.23;1.70;;;;;;;25.96;24.84;99942.30;1704349;82;21230;-63
2021/05/06 09:18:37;;;;;;;2.70;1.40;;;;;;;25.78;25.65;99934.58;1711280;82;21139;-66
2021/05/06 09:21:10;;;;;;;4.50;1.60;;;;;;;26.03;25.43;99938.71;1707267;82;21574;-66
2021/05/06 09:23:38;;;;;;;3.97;1.63;;;;;;;26.05;25.25;99937.07;1684737;83;21134;-65
2021/05/06 09:26:07;;;;;;;4.40;1.70;;;;;;;26.17;25.31;99946.73;1653660;82;21684;-67
2021/05/06 09:28:35;;;;;;;3.87;1.30;;;;;;;26.16;24.63;99930.46;1693105;82;21265;-66
2021/05/06 09:31:06;;;;;;;4.20;1.50;;;;;;;25.99;25.02;99935.05;1729430;81;21261;-65
2021/05/06 09:33:39;;;;;;;;;;;;;;;25.89;25.13;99936.00;1735370;81;21046;-66
2021/05/06 09:36:12;;;;;;;5.13;1.87;;;;;;;25.75;25.79;99929.78;1727233;81;20532;-68
2021/05/06 09:38:43;;;;;;;8.00;1.57;;;;;;;25.93;25.43;99930.86;1735076;81;21032;-67
2021/05/06 09:41:12;;;;;;;4.15;1.92;;;;;;;26.12;25.44;99922.79;1729518;81;21257;-70
2021/05/06 09:43:41;;;;;;;3.70;1.50;;;;;;;26.42;25.45;99927.57;1724971;81;21170;-68
2021/05/06 09:46:38;;;;;;;4.27;1.60;;;;;;;26.58;25.44;99925.42;1724369;81;21028;-66
2021/05/06 09:49:11;;;;;;;3.77;1.70;;;;;;;26.61;25.15;99924.83;1708810;82;21103;-65
2021/05/06 09:51:43;;;;;;;2.93;1.47;;;;;;;26.73;24.95;99916.30;1732838;81;21222;-68
2021/05/06 09:54:21;;;;;;;3.80;1.37;;;;;;;27.00;24.86;99925.37;1726997;81;21824;-67
2021/05/06 09:57:06;;;;;;;3.63;1.67;;;;;;;27.11;24.88;99932.13;1725685;80;21613;-68
2021/05/06 09:59:39;;;;;;;3.63;1.50;;;;;;;26.98;24.79;99920.89;1724247;80;21188;-68
2021/05/06 10:02:17;;;;;;;3.07;1.50;;;;;;;26.71;25.19;99921.17;1725298;80;21220;-67
2021/05/06 10:04:48;;;;;;;4.03;1.53;;;;;;;26.37;25.71;99906.30;1719014;82;21141;-66
2021/05/06 10:07:25;;;;;;;3.37;1.60;;;;;;;26.28;25.64;99914.73;1717831;82;21938;-67
2021/05/06 10:10:05;;;;;;;5.37;1.40;;;;;;;26.01;26.26;99910.70;1726785;82;21431;-67
2021/05/06 10:12:39;;;;;;;15.13;2.43;;;;;;;25.90;26.37;99908.20;1726533;82;21219;-68
2021/05/06 10:15:09;;;;;;;3.57;1.50;;;;;;;26.12;26.79;99899.53;1691990;83;21076;-69
2021/05/06 10:17:37;;;;;;;7.00;1.70;;;;;;;26.43;26.50;99896.29;1711102;82;21270;-72
2021/05/06 10:20:08;;;;;;;4.60;1.83;;;;;;;26.71;25.34;99890.42;1686219;83;22781;-68
2021/05/06 10:22:36;;;;;;;5.30;2.40;;;;;;;26.82;25.41;99882.44;1710734;82;21626;-67
2021/05/06 10:25:08;;;;;;;6.93;2.23;;;;;;;26.91;24.93;99876.61;1722532;79;21558;-70
2021/05/06 10:27:38;;;;;;;7.23;2.30;;;;;;;26.75;25.01;99868.68;1730963;79;21010;-70
2021/05/06 10:30:11;;;;;;;9.97;2.60;;;;;;;26.66;25.44;99871.25;1712357;81;21040;-69
2021/05/06 10:32:40;;;;;;;6.40;1.97;;;;;;;26.63;25.78;99876.40;1747301;79;22294;-68
2021/05/06 10:35:11;;;;;;;5.10;1.90;;;;;;;26.70;25.39;99858.07;1734223;79;21231;-71
2021/05/06 10:37:42;;;;;;;;;;;;;;;26.77;25.29;99865.69;1742188;81;21125;-70
2021/05/06 10:40:32;;;;;;;9.10;2.92;;;;;;;26.69;25.40;99861.30;1731115;81;20269;-68
2021/05/06 10:43:29;;;;;;;5.55;2.12;;;;;;;26.75;25.68;99853.97;1733383;79;21223;-69
2021/05/06 10:46:02;;;;;;;7.13;2.40;;;;;;;27.04;25.37;99846.10;1705453;83;22143;-67
2021/05/06 10:49:02;;;;;;;5.67;2.73;;;;;;;27.14;25.17;99848.58;1705145;82;21431;-70
2021/05/06 10:51:40;;;;;;;9.17;2.70;;;;;;;27.11;25.09;99845.95;1694536;82;21238;-68
2021/05/06 10:54:36;;;;;;;7.43;2.40;;;;;;;27.16;25.43;99843.70;1704418;82;21011;-68
2021/05/06 10:57:21;;;;;;;11.63;2.77;;;;;;;27.05;24.72;99839.13;1735973;79;21151;-67
2021/05/06 10:59:50;;;;;;;7.07;2.30;;;;;;;26.75;25.30;99833.92;1742219;79;21261;-67
2021/05/06 11:02:46;;;;;;;9.63;2.50;;;;;;;26.59;25.82;99838.78;1722734;81;21121;-69
2021/05/06 11:05:24;;;;;;;6.47;2.50;;;;;;;26.62;25.80;99838.19;1729738;79;21098;-68
2021/05/06 11:08:24;;;;;;;4.73;2.20;;;;;;;26.69;25.77;99831.09;1730749;81;21228;-69
2021/05/06 11:11:04;;;;;;;10.00;2.40;;;;;;;26.80;25.62;99817.75;1728309;79;21215;-68
2021/05/06 11:14:07;;;;;;;6.42;2.35;;;;;;;26.89;25.45;99831.19;1722477;81;21202;-67
2021/05/06 11:16:37;;;;;;;4.57;2.07;;;;;;;26.70;25.83;99834.01;1728445;79;21117;-69
2021/05/06 11:19:05;;;;;;;4.20;2.13;;;;;;;26.48;25.84;99834.77;1732433;81;20959;-66
2021/05/06 11:21:38;;;;;;;6.90;2.37;;;;;;;26.30;26.30;99812.92;1725376;78;21549;-68
2021/05/06 11:24:27;;;;;;;6.50;2.13;;;;;;;26.36;26.48;99807.16;1750603;78;21057;-70
2021/05/06 11:27:15;;;;;;;4.67;2.00;;;;;;;26.56;26.16;99810.00;1781035;78;21380;-66
2021/05/06 11:29:45;;;;;;;6.13;1.90;;;;;;;26.67;25.84;99803.34;1769351;79;21148;-70
2021/05/06 11:32:22;;;;;;;6.73;1.90;;;;;;;26.76;25.54;99797.27;1774643;78;21149;-69
2021/05/06 11:34:52;;;;;;;4.40;1.73;;;;;;;26.84;25.58;99801.89;1774825;78;21215;-70
2021/05/06 11:37:26;;;;;;;6.20;2.30;;;;;;;26.74;25.39;99795.43;1761505;78;21663;-67
2021/05/06 11:40:06;;;;;;;4.53;2.13;;;;;;;26.37;26.01;99802.08;1766501;79;21377;-69
2021/05/06 11:42:43;;;;;;;6.87;2.03;;;;;;;25.79;26.32;99796.53;1825658;78;26604;-69
2021/05/06 11:45:25;;;;;;;7.50;2.30;;;;;;;25.09;27.26;99792.84;1801819;78;21812;-68
2021/05/06 11:47:55;;;;;;;7.23;1.80;;;;;;;24.60;28.14;99789.30;1796521;77;21247;-66
2021/05/06 11:50:29;;;;;;;3.70;1.90;;;;;;;24.14;28.58;99793.84;1797861;79;22472;-67
2021/05/06 11:52:59;;;;;;;6.53;1.73;;;;;;;23.79;29.18;99789.17;1796421;79;20990;-70
2021/05/06 11:55:34;;;;;;;6.43;2.10;;;;;;;23.58;29.46;99785.87;1794160;77;21009;-70
2021/05/06 11:58:02;;;;;;;5.77;2.60;;;;;;;23.54;29.96;99784.30;1804359;77;21074;-68
2021/05/06 12:00:32;;;;;;;6.83;2.47;;;;;;;23.50;29.93;99777.95;1810894;79;22129;-68
2021/05/06 12:03:04;;;;;;;4.60;1.97;;;;;;;23.51;30.47;99773.42;1791957;77;20942;-67
2021/05/06 12:05:56;;;;;;;5.37;1.73;;;;;;;23.63;30.54;99774.38;1784895;77;21151;-68
2021/05/06 12:08:34;;;;;;;4.47;1.50;;;;;;;23.73;30.10;99767.66;1737165;80;21230;-67
2021/05/06 12:11:04;;;;;;;4.70;1.90;;;;;;;23.89;29.92;99762.97;1762659;79;21106;-68
2021/05/06 12:13:35;;;;;;;3.75;1.75;;;;;;;23.92;29.84;99757.87;1753961;79;21039;-68
2021/05/06 12:16:25;;;;;;;4.53;1.97;;;;;;;23.82;30.25;99759.84;1758175;78;21953;-68
2021/05/06 12:19:04;;;;;;;7.70;1.83;;;;;;;23.77;30.33;99765.48;1743303;81;21052;-68
2021/05/06 12:21:47;;;;;;;4.43;1.83;;;;;;;23.76;30.25;99760.45;1754674;80;21540;-68
2021/05/06 12:24:38;;;;;;;6.77;2.30;;;;;;;23.67;30.33;99764.78;1725374;81;21615;-67
2021/05/06 12:27:28;;;;;;;5.78;2.72;;;;;;;23.49;30.33;99756.97;1740447;79;21510;-68
2021/05/06 12:30:02;;;;;;;4.97;2.73;;;;;;;23.42;31.11;99751.18;1733853;81;21057;-67
2021/05/06 12:32:33;;;;;;;4.33;2.00;;;;;;;23.58;30.83;99761.13;1750446;79;21236;-68
2021/05/06 12:35:04;;;;;;;5.07;1.90;;;;;;;23.77;30.30;99756.16;1739172;80;21159;-68
2021/05/06 12:37:33;;;;;;;5.57;2.47;;;;;;;24.00;30.07;99755.91;1737604;80;21732;-67
2021/05/06 12:40:03;;;;;;;7.00;1.83;;;;;;;24.26;29.96;99744.41;1734142;81;21267;-68
2021/05/06 12:42:34;;;;;;;7.13;1.87;;;;;;;24.44;29.35;99750.09;1721244;81;21241;-71
2021/05/06 12:45:19;;;;;;;4.97;1.75;;;;;;;24.35;29.43;99747.22;1734321;80;20970;-69
2021/05/06 12:47:51;;;;;;;6.30;1.90;;;;;;;24.27;29.48;99746.53;1700446;82;21155;-65
2021/05/06 12:50:30;;;;;;;4.67;1.70;;;;;;;24.19;29.13;99746.62;1729929;82;21145;-66
2021/05/06 12:53:10;;;;;;;5.40;1.90;;;;;;;24.08;29.01;99744.38;1724603;82;21252;-67
2021/05/06 12:55:41;;;;;;;5.30;2.10;;;;;;;23.87;29.55;99751.83;1727509;82;21057;-70
2021/05/06 13:01:04;;;;;;;6.13;2.67;;;;;;;23.62;29.92;99741.66;1824398;76;27229;-68
2021/05/06 13:03:35;;;;;;;7.70;3.03;;;;;;;23.58;29.87;99735.31;1766124;79;21120;-68
2021/05/06 13:06:06;;;;;;;4.17;1.60;;;;;;;23.62;29.89;99739.00;1789254;79;21596;-68
2021/05/06 13:08:40;;;;;;;9.43;3.90;;;;;;;23.54;29.04;99744.94;1787991;77;21002;-70
2021/05/06 13:11:10;;;;;;;8.70;4.03;;;;;;;23.33;29.16;99735.02;1708628;82;21077;-64
2021/05/06 13:13:46;;;;;;;8.70;2.65;;;;;;;23.12;29.81;99735.74;1728629;82;22220;-66
2021/05/06 13:16:16;;;;;;;10.27;5.17;;;;;;;23.13;29.69;99737.86;1741235;80;21567;-67
2021/05/06 13:19:02;;;;;;;11.07;3.47;;;;;;;23.26;29.89;99730.55;1728388;80;21353;-69
2021/05/06 13:21:31;;;;;;;4.50;1.53;;;;;;;23.36;29.87;99735.78;1735275;81;21009;-65
2021/05/06 13:24:04;;;;;;;5.00;2.53;;;;;;;23.44;29.39;99733.05;1722843;82;21032;-67
2021/05/06 13:26:37;;;;;;;3.97;2.10;;;;;;;23.41;29.34;99733.10;1730284;82;21273;-66
2021/05/06 13:29:14;;;;;;;6.37;2.60;;;;;;;23.25;29.24;99729.77;1724316;80;21022;-66
2021/05/06 13:31:44;;;;;;;7.47;2.10;;;;;;;23.06;29.61;99730.20;1720554;82;21200;-68
2021/05/06 13:34:19;;;;;;;5.00;1.47;;;;;;;22.97;30.01;99724.69;1743842;80;21900;-66
2021/05/06 13:37:03;;;;;;;6.87;2.00;;;;;;;22.96;29.61;99719.66;1724136;82;21066;-70
2021/05/06 13:39:35;;;;;;;5.00;1.80;;;;;;;22.94;29.54;99723.12;1722915;82;21061;-71
2021/05/06 13:42:05;;;;;;;5.77;1.80;;;;;;;22.92;29.81;99722.08;1732017;82;21494;-67
2021/05/06 13:44:34;;;;;;;6.40;1.50;;;;;;;22.89;29.60;99723.93;1715132;82;22357;-70
2021/05/06 13:47:07;;;;;;;5.05;1.70;;;;;;;22.83;29.84;99721.04;1730491;80;21991;-69
2021/05/06 13:49:35;;;;;;;4.77;1.80;;;;;;;22.78;29.73;99729.06;1734587;81;21201;-71
2021/05/06 13:52:05;;;;;;;5.97;2.20;;;;;;;22.77;29.79;99717.64;1727479;80;21200;-68
2021/05/06 13:54:33;;;;;;;5.90;2.50;;;;;;;22.80;30.00;99714.95;1704712;82;21094;-68
2021/05/06 13:57:03;;;;;;;6.77;2.43;;;;;;;22.89;29.77;99717.83;1732967;82;22139;-65
2021/05/06 13:59:31;;;;;;;6.23;2.50;;;;;;;22.95;29.69;99713.53;1719202;82;21038;-68
2021/05/06 14:01:59;;;;;;;4.60;1.70;;;;;;;23.05;29.80;99708.68;1765503;79;21029;-69
2021/05/06 14:04:27;;;;;;;6.77;3.30;;;;;;;23.13;29.62;99709.41;1773490;79;21062;-67
2021/05/06 14:06:55;;;;;;;10.23;2.03;;;;;;;23.20;29.12;99709.88;1765235;78;21226;-68
2021/05/06 14:09:24;;;;;;;8.70;1.73;;;;;;;23.23;29.05;99707.99;1761675;79;21165;-68
2021/05/06 14:11:53;;;;;;;4.93;1.60;;;;;;;23.27;28.98;99706.90;1719982;82;21224;-71
2021/05/06 14:14:21;;;;;;;4.77;1.60;;;;;;;23.18;28.77;99704.57;1722290;82;21571;-65
2021/05/06 14:16:50;;;;;;;4.90;1.50;;;;;;;23.04;28.70;99697.80;1726272;81;22165;-67
2021/05/06 14:19:20;;;;;;;5.40;1.80;;;;;;;22.97;29.15;99710.61;1716070;81;21662;-67
2021/05/06 14:21:51;;;;;;;6.78;1.62;;;;;;;22.95;28.61;99701.57;1737767;80;22243;-68
2021/05/06 14:24:19;;;;;;;3.60;1.77;;;;;;;22.92;29.03;99699.49;1743225;80;21168;-69
2021/05/06 14:26:49;;;;;;;6.07;2.07;;;;;;;22.96;29.06;99695.75;1726151;81;21714;-70
2021/05/06 14:29:19;;;;;;;11.27;2.53;;;;;;;22.91;28.86;99697.88;1725959;80;22219;-69
2021/05/06 14:31:47;;;;;;;3.97;1.63;;;;;;;22.84;29.07;99698.70;1716361;82;21640;-67
2021/05/06 14:34:16;;;;;;;5.33;1.73;;;;;;;22.79;28.98;99694.23;1721258;81;22121;-68
2021/05/06 14:36:44;;;;;;;7.47;2.27;;;;;;;22.69;29.09;99701.47;1776460;78;21193;-69
2021/05/06 14:39:14;;;;;;;4.53;1.90;;;;;;;22.54;28.97;99689.91;1781952;79;21216;-66
2021/05/06 14:41:43;;;;;;;3.30;1.50;;;;;;;22.44;29.11;99688.63;1780404;79;21042;-68
2021/05/06 14:44:11;;;;;;;6.77;1.90;;;;;;;22.36;29.53;99689.22;1758873;79;21122;-70
2021/05/06 14:46:40;;;;;;;6.77;1.97;;;;;;;22.29;29.40;99684.20;1780427;79;22514;-71
2021/05/06 14:49:08;;;;;;;9.07;1.70;;;;;;;22.24;29.76;99687.44;1770561;79;21030;-65
2021/05/06 14:51:37;;;;;;;5.37;1.40;;;;;;;22.19;29.18;99686.91;1761967;79;21544;-67
2021/05/06 14:54:06;;;;;;;3.13;1.10;;;;;;;22.10;29.32;99681.35;1773703;79;21035;-69
2021/05/06 14:56:34;;;;;;;8.13;1.53;;;;;;;22.02;29.48;99683.25;1766561;79;21050;-69
2021/05/06 14:59:03;;;;;;;6.27;2.40;;;;;;;21.95;29.35;99676.12;1771213;78;21327;-66
2021/05/06 15:01:33;;;;;;;5.50;2.07;;;;;;;21.89;29.67;99680.38;1788745;77;21541;-69
2021/05/06 15:04:02;;;;;;;5.87;1.60;;;;;;;21.78;30.08;99677.79;1790792;79;21055;-68
2021/05/06 15:06:31;;;;;;;7.73;2.00;;;;;;;21.68;30.27;99671.72;1786627;77;21232;-71
2021/05/06 15:09:05;;;;;;;4.73;2.10;;;;;;;21.52;30.49;99667.78;1799992;79;21235;-67
2021/05/06 15:11:35;;;;;;;5.55;2.05;;;;;;;21.40;30.80;99673.89;1784471;79;21366;-67
2021/05/06 15:14:04;;;;;;;5.58;1.70;;;;;;;21.34;31.19;99675.77;1794235;78;21488;-68
2021/05/06 15:16:34;;;;;;;4.37;1.95;;;;;;;21.32;31.38;99674.41;1799284;79;20907;-68
2021/05/06 15:19:03;;;;;;;6.37;1.87;;;;;;;21.34;31.20;99670.47;1802796;79;21183;-67
2021/05/06 15:21:32;;;;;;;5.50;2.43;;;;;;;21.34;31.15;99675.77;1784585;79;21567;-66
2021/05/06 15:24:01;;;;;;;6.17;1.93;;;;;;;21.30;31.14;99669.92;1790043;79;21547;-65
2021/05/06 15:26:29;;;;;;;6.73;1.97;;;;;;;21.24;31.11;99673.10;1789410;77;21160;-70
2021/05/06 15:28:58;;;;;;;5.47;2.30;;;;;;;21.19;31.28;99667.81;1780910;77;21082;-67
2021/05/06 15:31:27;;;;;;;5.73;2.40;;;;;;;21.12;31.35;99669.41;1793161;77;21081;-66
2021/05/06 15:33:55;;;;;;;5.37;2.10;;;;;;;21.05;31.58;99667.55;1783032;79;21469;-71
2021/05/06 15:36:24;;;;;;;5.83;1.80;;;;;;;21.02;31.52;99677.36;1800658;79;21180;-72
2021/05/06 15:38:53;;;;;;;5.10;2.00;;;;;;;20.98;31.63;99671.00;1797978;77;21578;-67
2021/05/06 15:41:22;;;;;;;3.77;2.37;;;;;;;20.99;32.06;99676.59;1786307;79;21133;-66
2021/05/06 15:43:50;;;;;;;9.27;2.40;;;;;;;21.04;31.84;99673.13;1801417;79;21618;-68
2021/05/06 15:46:20;;;;;;;6.83;2.33;;;;;;;21.07;32.06;99679.23;1780579;77;21056;-69
2021/05/06 15:48:48;;;;;;;4.67;1.93;;;;;;;21.09;32.22;99672.59;1794000;79;21524;-68
2021/05/06 15:51:17;;;;;;;3.03;1.50;;;;;;;21.11;32.07;99675.78;1755195;79;20965;-67
2021/05/06 15:53:47;;;;;;;6.23;2.10;;;;;;;21.08;32.13;99665.70;1720156;80;20963;-69
2021/05/06 15:56:16;;;;;;;7.87;1.93;;;;;;;21.04;32.35;99675.78;1748925;79;21527;-71
2021/05/06 15:58:45;;;;;;;7.43;2.13;;;;;;;20.98;32.57;99675.51;1738175;82;21225;-67
2021/05/06 16:01:13;;;;;;;4.60;2.23;;;;;;;20.90;32.59;99677.62;1728538;81;22093;-65
2021/05/06 16:03:51;;;;;;;4.47;2.20;;;;;;;20.80;32.81;99676.32;1710091;81;21611;-69
2021/05/06 16:06:16;;;;;;;4.23;2.10;;;;;;;20.69;33.20;99675.26;1721990;82;21144;-66
2021/05/06 16:08:46;;;;;;;4.53;2.43;;;;;;;20.57;32.86;99678.12;1722037;82;21219;-69
2021/05/06 16:11:15;;;;;;;6.27;2.20;;;;;;;20.43;32.93;99687.63;1750262;81;21138;-65
2021/05/06 16:13:45;;;;;;;5.47;2.80;;;;;;;20.30;33.42;99687.58;1734805;81;21038;-69
2021/05/06 16:16:13;;;;;;;14.10;6.33;;;;;;;20.16;33.56;99688.09;1746501;81;21501;-67
2021/05/06 16:18:47;;;;;;;5.93;2.27;;;;;;;20.04;33.89;99686.20;1712199;81;21655;-65
2021/05/06 16:21:15;;;;;;;5.83;2.73;;;;;;;19.90;34.14;99692.48;1720750;82;20943;-64
2021/05/06 16:23:44;;;;;;;5.90;2.10;;;;;;;19.78;34.44;99689.79;1723413;81;21074;-67
2021/05/06 16:26:13;;;;;;;5.63;2.27;;;;;;;19.65;34.86;99693.67;1735712;80;21203;-68
2021/05/06 16:28:41;;;;;;;6.13;2.40;;;;;;;19.52;35.14;99693.58;1719450;82;21252;-64
2021/05/06 16:31:10;;;;;;;4.60;2.70;;;;;;;19.39;35.42;99700.62;1713590;82;21141;-67
2021/05/06 16:33:40;;;;;;;7.10;2.70;;;;;;;19.26;35.73;99699.75;1776036;79;21196;-67
2021/05/06 16:36:28;;;;;;;5.27;2.60;;;;;;;19.13;35.85;99698.31;1774737;79;21123;-67
2021/05/06 16:39:10;;;;;;;5.07;2.40;;;;;;;19.00;36.14;99696.91;1771573;79;21356;-68
2021/05/06 16:47:02;;;;;;;10.33;4.37;;;;;;;18.53;37.20;99694.88;1785913;79;21567;-69
2021/05/06 16:49:32;;;;;;;8.17;4.40;;;;;;;18.39;37.67;99696.31;1791810;79;21372;-67
2021/05/06 16:52:00;;;;;;;10.67;5.20;;;;;;;18.25;37.97;99693.25;1786973;79;21670;-68
2021/05/06 16:54:29;;;;;;;12.40;6.47;;;;;;;18.11;38.24;99691.53;1787296;79;21024;-66
2021/05/06 16:56:57;;;;;;;16.87;6.10;;;;;;;17.99;38.61;99697.42;1784734;79;21564;-66
2021/05/06 16:59:25;;;;;;;10.97;4.67;;;;;;;17.88;38.95;99698.34;1776228;79;21077;-67
2021/05/06 17:01:54;;;;;;;7.57;3.70;;;;;;;17.73;39.25;99698.41;1782805;78;21573;-65